Cape Bata — V7EF2 — position and weather

sailwx.info

Track history (hours):
 
Tides and Currents Weather Stations Pressure Air Temp Water Temp Dewpoint Dewpoint Depression Visibility Wind Speed Wind Dir Waves Ship Positions

Cape Bata

Last reported at 2015-Aug-02 02:20 UTC. Time now 2015-Aug-02 08:18 UTC.
Position N 43°24' W 003°05'.

Length 274 m; draft 9 m.

Type: Tanker. MMSI: 538090162.

Date/timePositionNaut miles runAvg speedWind from/ knotsBaromVisibWave heightAir tempDewpointWater temp
2015-Aug-02 02:20N 43°24' W 003°05'0 0.0
2015-Aug-01 19:16N 43°24' W 003°05'  
2015-Jul-29 04:30N 43°46' W 004°48'1311.7
2015-Jul-29 03:22N 43°47' W 005°06'1012.1
2015-Jul-29 02:33N 43°48' W 005°20'1312.3
2015-Jul-29 01:31N 43°49' W 005°38'1212.0
2015-Jul-29 00:32N 43°50' W 005°54'  
2015-Jul-25 17:32N 39°55' W 026°51'1312.2
2015-Jul-25 16:26N 39°51' W 027°08'1112.3
2015-Jul-25 15:33N 39°47' W 027°22'1212.2
2015-Jul-25 14:33N 39°43' W 027°37'1312.6
2015-Jul-25 13:31N 39°39' W 027°53'1112.0
2015-Jul-25 12:34N 39°36' W 028°07'1212.3
2015-Jul-25 11:33N 39°32' W 028°22'1212.1
2015-Jul-25 10:33N 39°28' W 028°37'1312.5
2015-Jul-25 09:34N 39°24' W 028°52'1212.4
2015-Jul-25 08:33N 39°20' W 029°07'1212.2
2015-Jul-25 07:33N 39°14' W 029°21'1212.5
2015-Jul-25 06:33N 39°06' W 029°34'1212.4
2015-Jul-25 05:33N 38°59' W 029°47'1212.4
2015-Jul-25 04:33N 38°52' W 029°59'1212.2
2015-Jul-25 03:33N 38°44' W 030°12'1312.5
2015-Jul-25 02:33N 38°37' W 030°25'1212.3
2015-Jul-25 01:33N 38°30' W 030°38'1211.9
2015-Jul-25 00:33N 38°23' W 030°50'1212.5
2015-Jul-24 23:33N 38°15' W 031°02'1312.3
2015-Jul-24 22:31N 38°08' W 031°15'  
Track history (hours):
 
Tides and Currents Weather Stations Pressure Air Temp Water Temp Dewpoint Dewpoint Depression Visibility Wind Speed Wind Dir Waves Ship Positions

Cape Bata

Last reported at 2015-Aug-02 02:20 UTC. Time now 2015-Aug-02 08:18 UTC.
Position N 43°24' W 003°05'.

Length 274 m; draft 9 m.

Type: Tanker. MMSI: 538090162.

Date/timePositionNaut miles runAvg speedWind from/ knotsBaromVisibWave heightAir tempDewpointWater temp
2015-Aug-02 02:20N 43°24' W 003°05'0 0.0
2015-Aug-01 19:16N 43°24' W 003°05'  
2015-Jul-29 04:30N 43°46' W 004°48'1311.7
2015-Jul-29 03:22N 43°47' W 005°06'1012.1
2015-Jul-29 02:33N 43°48' W 005°20'1312.3
2015-Jul-29 01:31N 43°49' W 005°38'1212.0
2015-Jul-29 00:32N 43°50' W 005°54'  
2015-Jul-25 17:32N 39°55' W 026°51'1312.2
2015-Jul-25 16:26N 39°51' W 027°08'1112.3
2015-Jul-25 15:33N 39°47' W 027°22'1212.2
2015-Jul-25 14:33N 39°43' W 027°37'1312.6
2015-Jul-25 13:31N 39°39' W 027°53'1112.0
2015-Jul-25 12:34N 39°36' W 028°07'1212.3
2015-Jul-25 11:33N 39°32' W 028°22'1212.1
2015-Jul-25 10:33N 39°28' W 028°37'1312.5
2015-Jul-25 09:34N 39°24' W 028°52'1212.4
2015-Jul-25 08:33N 39°20' W 029°07'1212.2
2015-Jul-25 07:33N 39°14' W 029°21'1212.5
2015-Jul-25 06:33N 39°06' W 029°34'1212.4
2015-Jul-25 05:33N 38°59' W 029°47'1212.4
2015-Jul-25 04:33N 38°52' W 029°59'1212.2
2015-Jul-25 03:33N 38°44' W 030°12'1312.5
2015-Jul-25 02:33N 38°37' W 030°25'1212.3
2015-Jul-25 01:33N 38°30' W 030°38'1211.9
2015-Jul-25 00:33N 38°23' W 030°50'1212.5
2015-Jul-24 23:33N 38°15' W 031°02'1312.3
2015-Jul-24 22:31N 38°08' W 031°15'  

Dump ship's entire track history